sensor_id;sensor_type;location;lat;lon;timestamp;P1;durP1;ratioP1;P2;durP2;ratioP2
17153;SDS011;8692;52.164;7.558;2023-04-01T00:00:11;5.53;;;4.47;;
17153;SDS011;8692;52.164;7.558;2023-04-01T00:02:40;5.10;;;4.40;;
17153;SDS011;8692;52.164;7.558;2023-04-01T00:05:11;3.93;;;3.63;;
17153;SDS011;8692;52.164;7.558;2023-04-01T00:07:42;5.77;;;4.03;;
17153;SDS011;8692;52.164;7.558;2023-04-01T00:10:11;5.13;;;3.90;;
17153;SDS011;8692;52.164;7.558;2023-04-01T00:12:44;5.90;;;3.50;;
17153;SDS011;8692;52.164;7.558;2023-04-01T00:15:12;6.07;;;3.57;;
17153;SDS011;8692;52.164;7.558;2023-04-01T00:17:40;6.73;;;4.10;;
17153;SDS011;8692;52.164;7.558;2023-04-01T00:20:08;6.07;;;4.03;;
17153;SDS011;8692;52.164;7.558;2023-04-01T00:22:37;8.70;;;3.93;;
17153;SDS011;8692;52.164;7.558;2023-04-01T00:25:06;5.70;;;3.40;;
17153;SDS011;8692;52.164;7.558;2023-04-01T00:27:34;4.73;;;3.30;;
17153;SDS011;8692;52.164;7.558;2023-04-01T00:30:04;4.63;;;3.13;;
17153;SDS011;8692;52.164;7.558;2023-04-01T00:32:33;4.57;;;3.23;;
17153;SDS011;8692;52.164;7.558;2023-04-01T00:35:04;6.83;;;2.77;;
17153;SDS011;8692;52.164;7.558;2023-04-01T00:37:34;3.73;;;2.97;;
17153;SDS011;8692;52.164;7.558;2023-04-01T00:40:03;5.10;;;2.83;;
17153;SDS011;8692;52.164;7.558;2023-04-01T00:42:32;3.67;;;2.57;;
17153;SDS011;8692;52.164;7.558;2023-04-01T00:48:09;3.43;;;2.20;;
17153;SDS011;8692;52.164;7.558;2023-04-01T00:50:40;3.90;;;2.50;;
17153;SDS011;8692;52.164;7.558;2023-04-01T00:53:12;5.40;;;2.40;;
17153;SDS011;8692;52.164;7.558;2023-04-01T00:55:41;7.17;;;2.73;;
17153;SDS011;8692;52.164;7.558;2023-04-01T00:58:14;3.67;;;2.50;;
17153;SDS011;8692;52.164;7.558;2023-04-01T01:00:45;5.40;;;2.50;;
17153;SDS011;8692;52.164;7.558;2023-04-01T01:03:16;7.13;;;2.70;;
17153;SDS011;8692;52.164;7.558;2023-04-01T01:05:52;5.67;;;2.63;;
17153;SDS011;8692;52.164;7.558;2023-04-01T01:09:06;4.07;;;2.70;;
17153;SDS011;8692;52.164;7.558;2023-04-01T01:11:47;5.77;;;2.70;;
17153;SDS011;8692;52.164;7.558;2023-04-01T01:14:26;5.07;;;2.27;;
17153;SDS011;8692;52.164;7.558;2023-04-01T01:17:06;3.67;;;2.63;;
17153;SDS011;8692;52.164;7.558;2023-04-01T01:19:45;6.20;;;2.60;;
17153;SDS011;8692;52.164;7.558;2023-04-01T01:23:01;4.33;;;3.17;;
17153;SDS011;8692;52.164;7.558;2023-04-01T01:25:59;4.00;;;2.80;;
17153;SDS011;8692;52.164;7.558;2023-04-01T01:28:44;3.77;;;2.87;;
17153;SDS011;8692;52.164;7.558;2023-04-01T01:31:24;5.93;;;2.50;;
17153;SDS011;8692;52.164;7.558;2023-04-01T01:34:06;4.03;;;2.60;;
17153;SDS011;8692;52.164;7.558;2023-04-01T01:36:44;4.70;;;2.30;;
17153;SDS011;8692;52.164;7.558;2023-04-01T01:39:16;6.43;;;3.60;;
17153;SDS011;8692;52.164;7.558;2023-04-01T01:41:46;3.33;;;2.80;;
17153;SDS011;8692;52.164;7.558;2023-04-01T01:44:18;3.90;;;2.60;;
17153;SDS011;8692;52.164;7.558;2023-04-01T01:46:50;4.07;;;2.67;;
17153;SDS011;8692;52.164;7.558;2023-04-01T01:49:21;3.43;;;2.43;;
17153;SDS011;8692;52.164;7.558;2023-04-01T01:51:51;3.57;;;2.60;;
17153;SDS011;8692;52.164;7.558;2023-04-01T01:54:19;3.10;;;2.70;;
17153;SDS011;8692;52.164;7.558;2023-04-01T01:56:48;4.33;;;2.70;;
17153;SDS011;8692;52.164;7.558;2023-04-01T01:59:22;6.07;;;2.33;;
17153;SDS011;8692;52.164;7.558;2023-04-01T02:01:56;3.90;;;2.73;;
17153;SDS011;8692;52.164;7.558;2023-04-01T02:04:28;3.80;;;2.93;;
17153;SDS011;8692;52.164;7.558;2023-04-01T02:06:59;3.30;;;2.70;;
17153;SDS011;8692;52.164;7.558;2023-04-01T02:09:29;3.87;;;2.70;;
17153;SDS011;8692;52.164;7.558;2023-04-01T02:12:02;3.87;;;2.60;;
17153;SDS011;8692;52.164;7.558;2023-04-01T02:14:39;3.60;;;2.57;;
17153;SDS011;8692;52.164;7.558;2023-04-01T02:17:14;3.57;;;2.53;;
17153;SDS011;8692;52.164;7.558;2023-04-01T02:19:46;4.17;;;2.67;;
17153;SDS011;8692;52.164;7.558;2023-04-01T02:22:21;3.03;;;2.60;;
17153;SDS011;8692;52.164;7.558;2023-04-01T02:24:57;2.40;;;2.20;;
17153;SDS011;8692;52.164;7.558;2023-04-01T02:27:26;3.80;;;2.77;;
17153;SDS011;8692;52.164;7.558;2023-04-01T02:29:56;3.30;;;2.50;;
17153;SDS011;8692;52.164;7.558;2023-04-01T02:32:24;4.77;;;3.17;;
17153;SDS011;8692;52.164;7.558;2023-04-01T02:34:55;3.57;;;2.90;;
17153;SDS011;8692;52.164;7.558;2023-04-01T02:37:28;5.23;;;3.30;;
17153;SDS011;8692;52.164;7.558;2023-04-01T02:39:59;3.57;;;3.07;;
17153;SDS011;8692;52.164;7.558;2023-04-01T02:42:28;3.30;;;3.03;;
17153;SDS011;8692;52.164;7.558;2023-04-01T02:44:58;3.73;;;3.37;;
17153;SDS011;8692;52.164;7.558;2023-04-01T02:47:29;4.47;;;3.50;;
17153;SDS011;8692;52.164;7.558;2023-04-01T02:49:58;4.00;;;3.70;;
17153;SDS011;8692;52.164;7.558;2023-04-01T02:52:26;3.90;;;3.60;;
17153;SDS011;8692;52.164;7.558;2023-04-01T02:54:58;4.57;;;4.10;;
17153;SDS011;8692;52.164;7.558;2023-04-01T02:57:26;3.50;;;3.30;;
17153;SDS011;8692;52.164;7.558;2023-04-01T02:59:55;4.40;;;3.73;;
17153;SDS011;8692;52.164;7.558;2023-04-01T03:02:25;3.93;;;2.93;;
17153;SDS011;8692;52.164;7.558;2023-04-01T03:04:54;3.10;;;2.83;;
17153;SDS011;8692;52.164;7.558;2023-04-01T03:07:24;2.80;;;2.60;;
17153;SDS011;8692;52.164;7.558;2023-04-01T03:09:52;3.83;;;2.63;;
17153;SDS011;8692;52.164;7.558;2023-04-01T03:12:24;2.97;;;2.70;;
17153;SDS011;8692;52.164;7.558;2023-04-01T03:14:52;2.67;;;2.37;;
17153;SDS011;8692;52.164;7.558;2023-04-01T03:17:20;2.50;;;2.23;;
17153;SDS011;8692;52.164;7.558;2023-04-01T03:19:48;3.00;;;2.33;;
17153;SDS011;8692;52.164;7.558;2023-04-01T03:22:18;3.00;;;2.20;;
17153;SDS011;8692;52.164;7.558;2023-04-01T03:24:47;3.13;;;2.40;;
17153;SDS011;8692;52.164;7.558;2023-04-01T03:27:19;1.73;;;1.63;;
17153;SDS011;8692;52.164;7.558;2023-04-01T03:29:48;3.73;;;1.93;;
17153;SDS011;8692;52.164;7.558;2023-04-01T03:32:20;2.43;;;1.80;;
17153;SDS011;8692;52.164;7.558;2023-04-01T03:34:48;2.90;;;2.47;;
17153;SDS011;8692;52.164;7.558;2023-04-01T03:37:16;1.90;;;1.80;;
17153;SDS011;8692;52.164;7.558;2023-04-01T03:39:46;2.20;;;2.00;;
17153;SDS011;8692;52.164;7.558;2023-04-01T03:42:16;1.87;;;1.77;;
17153;SDS011;8692;52.164;7.558;2023-04-01T03:44:44;2.03;;;1.70;;
17153;SDS011;8692;52.164;7.558;2023-04-01T03:47:14;2.30;;;2.10;;
17153;SDS011;8692;52.164;7.558;2023-04-01T03:49:42;2.63;;;2.17;;
17153;SDS011;8692;52.164;7.558;2023-04-01T03:52:12;2.53;;;2.10;;
17153;SDS011;8692;52.164;7.558;2023-04-01T03:54:40;2.00;;;1.90;;
17153;SDS011;8692;52.164;7.558;2023-04-01T03:57:09;2.10;;;1.90;;
17153;SDS011;8692;52.164;7.558;2023-04-01T03:59:37;2.13;;;2.00;;
17153;SDS011;8692;52.164;7.558;2023-04-01T04:02:06;1.93;;;1.83;;
17153;SDS011;8692;52.164;7.558;2023-04-01T04:04:36;2.10;;;2.00;;
17153;SDS011;8692;52.164;7.558;2023-04-01T04:07:07;2.13;;;2.03;;
17153;SDS011;8692;52.164;7.558;2023-04-01T04:10:02;1.90;;;1.80;;
17153;SDS011;8692;52.164;7.558;2023-04-01T04:12:30;2.17;;;2.07;;
17153;SDS011;8692;52.164;7.558;2023-04-01T04:15:01;2.33;;;2.03;;
17153;SDS011;8692;52.164;7.558;2023-04-01T04:17:31;3.83;;;2.50;;
17153;SDS011;8692;52.164;7.558;2023-04-01T04:20:01;2.27;;;2.17;;
17153;SDS011;8692;52.164;7.558;2023-04-01T04:22:29;2.43;;;2.30;;
17153;SDS011;8692;52.164;7.558;2023-04-01T04:24:58;3.13;;;2.87;;
17153;SDS011;8692;52.164;7.558;2023-04-01T04:27:26;3.50;;;3.20;;
17153;SDS011;8692;52.164;7.558;2023-04-01T04:30:05;3.93;;;3.03;;
17153;SDS011;8692;52.164;7.558;2023-04-01T04:32:37;3.20;;;3.00;;
17153;SDS011;8692;52.164;7.558;2023-04-01T04:35:07;3.57;;;3.27;;
17153;SDS011;8692;52.164;7.558;2023-04-01T04:37:36;3.60;;;3.37;;
17153;SDS011;8692;52.164;7.558;2023-04-01T04:40:05;4.03;;;3.73;;
17153;SDS011;8692;52.164;7.558;2023-04-01T04:42:35;4.73;;;4.03;;
17153;SDS011;8692;52.164;7.558;2023-04-01T04:45:08;3.60;;;3.30;;
17153;SDS011;8692;52.164;7.558;2023-04-01T04:47:44;4.33;;;3.83;;
17153;SDS011;8692;52.164;7.558;2023-04-01T04:50:16;3.47;;;3.27;;
17153;SDS011;8692;52.164;7.558;2023-04-01T04:52:45;4.43;;;4.03;;
17153;SDS011;8692;52.164;7.558;2023-04-01T04:55:13;4.53;;;3.63;;
17153;SDS011;8692;52.164;7.558;2023-04-01T04:57:45;4.40;;;4.00;;
17153;SDS011;8692;52.164;7.558;2023-04-01T05:00:13;3.97;;;3.67;;
17153;SDS011;8692;52.164;7.558;2023-04-01T05:02:51;5.23;;;4.43;;
17153;SDS011;8692;52.164;7.558;2023-04-01T05:05:23;4.23;;;3.83;;
17153;SDS011;8692;52.164;7.558;2023-04-01T05:07:51;4.60;;;4.20;;
17153;SDS011;8692;52.164;7.558;2023-04-01T05:10:21;4.47;;;4.17;;
17153;SDS011;8692;52.164;7.558;2023-04-01T05:12:49;4.77;;;4.37;;
17153;SDS011;8692;52.164;7.558;2023-04-01T05:15:20;4.30;;;4.00;;
17153;SDS011;8692;52.164;7.558;2023-04-01T05:17:49;4.23;;;3.83;;
17153;SDS011;8692;52.164;7.558;2023-04-01T05:20:17;4.60;;;4.20;;
17153;SDS011;8692;52.164;7.558;2023-04-01T05:22:47;3.57;;;3.27;;
17153;SDS011;8692;52.164;7.558;2023-04-01T05:25:15;4.20;;;3.90;;
17153;SDS011;8692;52.164;7.558;2023-04-01T05:27:43;4.53;;;3.80;;
17153;SDS011;8692;52.164;7.558;2023-04-01T05:30:11;4.07;;;3.77;;
17153;SDS011;8692;52.164;7.558;2023-04-01T05:33:00;4.07;;;3.70;;
17153;SDS011;8692;52.164;7.558;2023-04-01T05:35:28;4.40;;;3.40;;
17153;SDS011;8692;52.164;7.558;2023-04-01T05:37:59;3.67;;;3.37;;
17153;SDS011;8692;52.164;7.558;2023-04-01T05:40:27;4.00;;;3.70;;
17153;SDS011;8692;52.164;7.558;2023-04-01T05:42:55;3.80;;;3.40;;
17153;SDS011;8692;52.164;7.558;2023-04-01T05:45:26;7.00;;;3.97;;
17153;SDS011;8692;52.164;7.558;2023-04-01T05:48:12;3.90;;;3.33;;
17153;SDS011;8692;52.164;7.558;2023-04-01T05:50:43;4.30;;;4.00;;
17153;SDS011;8692;52.164;7.558;2023-04-01T05:53:15;5.50;;;5.00;;
17153;SDS011;8692;52.164;7.558;2023-04-01T05:55:43;5.67;;;4.60;;
17153;SDS011;8692;52.164;7.558;2023-04-01T05:58:12;5.23;;;4.73;;
17153;SDS011;8692;52.164;7.558;2023-04-01T06:00:44;5.73;;;5.23;;
17153;SDS011;8692;52.164;7.558;2023-04-01T06:03:15;6.50;;;5.43;;
17153;SDS011;8692;52.164;7.558;2023-04-01T06:05:43;6.63;;;6.03;;
17153;SDS011;8692;52.164;7.558;2023-04-01T06:08:13;6.80;;;6.10;;
17153;SDS011;8692;52.164;7.558;2023-04-01T06:10:52;7.17;;;6.57;;
17153;SDS011;8692;52.164;7.558;2023-04-01T06:13:36;6.97;;;6.27;;
17153;SDS011;8692;52.164;7.558;2023-04-01T06:16:19;6.77;;;6.17;;
17153;SDS011;8692;52.164;7.558;2023-04-01T06:18:59;7.27;;;6.67;;
17153;SDS011;8692;52.164;7.558;2023-04-01T06:21:50;7.30;;;6.23;;
17153;SDS011;8692;52.164;7.558;2023-04-01T06:24:37;7.23;;;6.60;;
17153;SDS011;8692;52.164;7.558;2023-04-01T06:27:19;6.37;;;5.77;;
17153;SDS011;8692;52.164;7.558;2023-04-01T06:30:02;7.23;;;6.53;;
17153;SDS011;8692;52.164;7.558;2023-04-01T06:33:05;6.93;;;6.33;;
17153;SDS011;8692;52.164;7.558;2023-04-01T06:35:49;6.10;;;5.50;;
17153;SDS011;8692;52.164;7.558;2023-04-01T06:38:32;6.13;;;5.53;;
17153;SDS011;8692;52.164;7.558;2023-04-01T06:41:20;6.63;;;5.93;;
17153;SDS011;8692;52.164;7.558;2023-04-01T06:43:57;6.80;;;6.20;;
17153;SDS011;8692;52.164;7.558;2023-04-01T06:46:52;6.63;;;6.03;;
17153;SDS011;8692;52.164;7.558;2023-04-01T06:50:06;5.20;;;4.80;;
17153;SDS011;8692;52.164;7.558;2023-04-01T06:53:10;5.37;;;4.90;;
17153;SDS011;8692;52.164;7.558;2023-04-01T06:56:05;5.00;;;4.60;;
17153;SDS011;8692;52.164;7.558;2023-04-01T06:58:55;5.40;;;4.90;;
17153;SDS011;8692;52.164;7.558;2023-04-01T07:01:28;4.93;;;4.53;;
17153;SDS011;8692;52.164;7.558;2023-04-01T07:04:00;5.40;;;5.00;;
17153;SDS011;8692;52.164;7.558;2023-04-01T07:06:36;6.20;;;5.60;;
17153;SDS011;8692;52.164;7.558;2023-04-01T07:09:10;4.73;;;4.33;;
17153;SDS011;8692;52.164;7.558;2023-04-01T07:12:06;5.30;;;4.90;;
17153;SDS011;8692;52.164;7.558;2023-04-01T07:15:00;5.33;;;4.93;;
17153;SDS011;8692;52.164;7.558;2023-04-01T07:17:42;5.23;;;4.83;;
17153;SDS011;8692;52.164;7.558;2023-04-01T07:20:17;4.73;;;4.33;;
17153;SDS011;8692;52.164;7.558;2023-04-01T07:22:52;5.07;;;4.67;;
17153;SDS011;8692;52.164;7.558;2023-04-01T07:25:33;5.30;;;4.80;;
17153;SDS011;8692;52.164;7.558;2023-04-01T07:28:29;5.60;;;5.07;;
17153;SDS011;8692;52.164;7.558;2023-04-01T07:31:13;5.87;;;5.37;;
17153;SDS011;8692;52.164;7.558;2023-04-01T07:33:50;6.37;;;5.57;;
17153;SDS011;8692;52.164;7.558;2023-04-01T07:36:28;6.47;;;5.30;;
17153;SDS011;8692;52.164;7.558;2023-04-01T07:39:07;5.77;;;5.27;;
17153;SDS011;8692;52.164;7.558;2023-04-01T07:42:13;6.97;;;6.40;;
17153;SDS011;8692;52.164;7.558;2023-04-01T07:44:53;6.60;;;6.10;;
17153;SDS011;8692;52.164;7.558;2023-04-01T07:47:33;7.23;;;6.70;;
17153;SDS011;8692;52.164;7.558;2023-04-01T07:50:18;6.67;;;6.17;;
17153;SDS011;8692;52.164;7.558;2023-04-01T07:52:55;6.23;;;5.63;;
17153;SDS011;8692;52.164;7.558;2023-04-01T07:55:38;6.00;;;5.50;;
17153;SDS011;8692;52.164;7.558;2023-04-01T07:58:14;6.17;;;5.57;;
17153;SDS011;8692;52.164;7.558;2023-04-01T08:00:55;5.87;;;5.47;;
17153;SDS011;8692;52.164;7.558;2023-04-01T08:03:38;5.77;;;5.27;;
17153;SDS011;8692;52.164;7.558;2023-04-01T08:06:20;5.30;;;4.90;;
17153;SDS011;8692;52.164;7.558;2023-04-01T08:08:57;5.40;;;4.90;;
17153;SDS011;8692;52.164;7.558;2023-04-01T08:11:36;5.10;;;4.63;;
17153;SDS011;8692;52.164;7.558;2023-04-01T08:14:52;6.17;;;5.67;;
17153;SDS011;8692;52.164;7.558;2023-04-01T08:17:54;5.50;;;5.07;;
17153;SDS011;8692;52.164;7.558;2023-04-01T08:20:44;6.73;;;6.17;;
17153;SDS011;8692;52.164;7.558;2023-04-01T08:23:22;6.63;;;6.13;;
17153;SDS011;8692;52.164;7.558;2023-04-01T08:25:56;6.53;;;6.03;;
17153;SDS011;8692;52.164;7.558;2023-04-01T08:28:34;6.17;;;5.67;;
17153;SDS011;8692;52.164;7.558;2023-04-01T08:31:10;5.90;;;5.30;;
17153;SDS011;8692;52.164;7.558;2023-04-01T08:33:43;6.33;;;5.83;;
17153;SDS011;8692;52.164;7.558;2023-04-01T08:36:15;5.20;;;4.80;;
17153;SDS011;8692;52.164;7.558;2023-04-01T08:38:54;4.87;;;4.40;;
17153;SDS011;8692;52.164;7.558;2023-04-01T08:41:36;5.07;;;4.70;;
17153;SDS011;8692;52.164;7.558;2023-04-01T08:44:52;5.13;;;4.73;;
17153;SDS011;8692;52.164;7.558;2023-04-01T08:47:40;5.27;;;4.87;;
17153;SDS011;8692;52.164;7.558;2023-04-01T08:53:41;3.60;;;3.30;;
17153;SDS011;8692;52.164;7.558;2023-04-01T08:56:25;4.57;;;4.27;;
17153;SDS011;8692;52.164;7.558;2023-04-01T08:59:13;5.03;;;4.63;;
17153;SDS011;8692;52.164;7.558;2023-04-01T09:02:04;5.00;;;4.60;;
17153;SDS011;8692;52.164;7.558;2023-04-01T09:08:02;4.77;;;4.37;;
17153;SDS011;8692;52.164;7.558;2023-04-01T09:13:59;4.53;;;3.80;;
17153;SDS011;8692;52.164;7.558;2023-04-01T09:20:01;3.80;;;3.50;;
17153;SDS011;8692;52.164;7.558;2023-04-01T09:22:59;3.77;;;3.47;;
17153;SDS011;8692;52.164;7.558;2023-04-01T09:25:48;3.27;;;3.00;;
17153;SDS011;8692;52.164;7.558;2023-04-01T09:28:28;3.70;;;3.30;;
17153;SDS011;8692;52.164;7.558;2023-04-01T09:31:23;3.57;;;3.30;;
17153;SDS011;8692;52.164;7.558;2023-04-01T09:34:53;3.60;;;3.30;;
17153;SDS011;8692;52.164;7.558;2023-04-01T09:37:31;3.03;;;2.83;;
17153;SDS011;8692;52.164;7.558;2023-04-01T09:40:16;3.40;;;3.20;;
17153;SDS011;8692;52.164;7.558;2023-04-01T09:43:02;3.40;;;3.20;;
17153;SDS011;8692;52.164;7.558;2023-04-01T09:45:46;3.47;;;3.27;;
17153;SDS011;8692;52.164;7.558;2023-04-01T09:48:46;3.70;;;3.33;;
17153;SDS011;8692;52.164;7.558;2023-04-01T09:51:37;2.90;;;2.63;;
17153;SDS011;8692;52.164;7.558;2023-04-01T09:54:19;2.30;;;2.20;;
17153;SDS011;8692;52.164;7.558;2023-04-01T10:00:30;2.20;;;2.10;;
17153;SDS011;8692;52.164;7.558;2023-04-01T10:06:49;1.93;;;1.83;;
17153;SDS011;8692;52.164;7.558;2023-04-01T10:19:31;2.20;;;2.10;;
17153;SDS011;8692;52.164;7.558;2023-04-01T10:25:37;2.23;;;2.10;;
17153;SDS011;8692;52.164;7.558;2023-04-01T10:31:53;1.90;;;1.63;;
17153;SDS011;8692;52.164;7.558;2023-04-01T10:47:54;2.30;;;2.20;;
17153;SDS011;8692;52.164;7.558;2023-04-01T10:57:10;2.10;;;2.00;;
17153;SDS011;8692;52.164;7.558;2023-04-01T11:10:38;1.50;;;1.40;;
17153;SDS011;8692;52.164;7.558;2023-04-01T11:13:31;1.13;;;1.13;;
17153;SDS011;8692;52.164;7.558;2023-04-01T11:16:30;1.30;;;1.30;;
17153;SDS011;8692;52.164;7.558;2023-04-01T11:22:41;2.10;;;2.00;;
17153;SDS011;8692;52.164;7.558;2023-04-01T11:29:02;2.10;;;2.00;;
17153;SDS011;8692;52.164;7.558;2023-04-01T11:31:51;1.63;;;1.53;;
17153;SDS011;8692;52.164;7.558;2023-04-01T11:34:42;2.03;;;1.93;;
17153;SDS011;8692;52.164;7.558;2023-04-01T11:37:25;1.90;;;1.63;;
17153;SDS011;8692;52.164;7.558;2023-04-01T11:40:41;1.50;;;1.40;;
17153;SDS011;8692;52.164;7.558;2023-04-01T11:43:43;1.80;;;1.70;;
17153;SDS011;8692;52.164;7.558;2023-04-01T11:46:52;1.87;;;1.77;;
17153;SDS011;8692;52.164;7.558;2023-04-01T11:49:49;1.90;;;1.80;;
17153;SDS011;8692;52.164;7.558;2023-04-01T11:52:51;2.40;;;2.20;;
17153;SDS011;8692;52.164;7.558;2023-04-01T11:55:31;2.20;;;2.10;;
17153;SDS011;8692;52.164;7.558;2023-04-01T11:58:19;2.33;;;2.03;;
17153;SDS011;8692;52.164;7.558;2023-04-01T12:01:06;1.80;;;1.70;;
17153;SDS011;8692;52.164;7.558;2023-04-01T12:04:03;1.63;;;1.53;;
17153;SDS011;8692;52.164;7.558;2023-04-01T12:06:48;1.80;;;1.70;;
17153;SDS011;8692;52.164;7.558;2023-04-01T12:09:22;2.17;;;2.07;;
17153;SDS011;8692;52.164;7.558;2023-04-01T12:12:00;1.90;;;1.80;;
17153;SDS011;8692;52.164;7.558;2023-04-01T12:14:45;2.00;;;1.90;;
17153;SDS011;8692;52.164;7.558;2023-04-01T12:17:28;2.13;;;2.03;;
17153;SDS011;8692;52.164;7.558;2023-04-01T12:20:17;2.20;;;2.10;;
17153;SDS011;8692;52.164;7.558;2023-04-01T12:22:56;2.60;;;2.43;;
17153;SDS011;8692;52.164;7.558;2023-04-01T12:25:42;3.07;;;2.87;;
17153;SDS011;8692;52.164;7.558;2023-04-01T12:28:35;2.57;;;2.47;;
17153;SDS011;8692;52.164;7.558;2023-04-01T12:31:15;3.13;;;2.93;;
17153;SDS011;8692;52.164;7.558;2023-04-01T12:37:05;3.47;;;3.27;;
17153;SDS011;8692;52.164;7.558;2023-04-01T12:39:44;4.50;;;4.20;;
17153;SDS011;8692;52.164;7.558;2023-04-01T12:42:36;10.07;;;4.23;;
17153;SDS011;8692;52.164;7.558;2023-04-01T12:45:18;6.17;;;4.80;;
17153;SDS011;8692;52.164;7.558;2023-04-01T12:48:16;3.83;;;3.53;;
17153;SDS011;8692;52.164;7.558;2023-04-01T12:51:01;4.37;;;4.07;;
17153;SDS011;8692;52.164;7.558;2023-04-01T12:53:54;4.07;;;3.77;;
17153;SDS011;8692;52.164;7.558;2023-04-01T12:56:46;5.13;;;4.80;;
17153;SDS011;8692;52.164;7.558;2023-04-01T12:59:41;4.80;;;4.40;;
17153;SDS011;8692;52.164;7.558;2023-04-01T13:02:22;4.70;;;4.33;;
17153;SDS011;8692;52.164;7.558;2023-04-01T13:07:53;5.37;;;4.97;;
17153;SDS011;8692;52.164;7.558;2023-04-01T13:10:49;4.93;;;4.63;;
17153;SDS011;8692;52.164;7.558;2023-04-01T13:13:40;4.90;;;4.50;;
17153;SDS011;8692;52.164;7.558;2023-04-01T13:16:33;5.07;;;4.63;;
17153;SDS011;8692;52.164;7.558;2023-04-01T13:19:07;3.60;;;3.40;;
17153;SDS011;8692;52.164;7.558;2023-04-01T13:21:46;4.00;;;3.70;;
17153;SDS011;8692;52.164;7.558;2023-04-01T13:24:24;3.53;;;3.23;;
17153;SDS011;8692;52.164;7.558;2023-04-01T13:27:07;4.60;;;4.20;;
17153;SDS011;8692;52.164;7.558;2023-04-01T13:29:43;3.57;;;3.37;;
17153;SDS011;8692;52.164;7.558;2023-04-01T13:32:26;3.60;;;3.30;;
17153;SDS011;8692;52.164;7.558;2023-04-01T13:35:13;3.27;;;3.07;;
17153;SDS011;8692;52.164;7.558;2023-04-01T13:37:53;3.30;;;3.10;;
17153;SDS011;8692;52.164;7.558;2023-04-01T13:40:36;2.87;;;2.67;;
17153;SDS011;8692;52.164;7.558;2023-04-01T13:43:31;2.50;;;2.30;;
17153;SDS011;8692;52.164;7.558;2023-04-01T13:46:07;3.10;;;2.80;;
17153;SDS011;8692;52.164;7.558;2023-04-01T13:49:02;2.50;;;2.30;;
17153;SDS011;8692;52.164;7.558;2023-04-01T13:51:56;2.23;;;2.03;;
17153;SDS011;8692;52.164;7.558;2023-04-01T13:54:56;3.27;;;3.03;;
17153;SDS011;8692;52.164;7.558;2023-04-01T13:57:49;3.17;;;2.97;;
17153;SDS011;8692;52.164;7.558;2023-04-01T14:00:35;3.83;;;2.63;;
17153;SDS011;8692;52.164;7.558;2023-04-01T14:03:20;2.60;;;2.37;;
17153;SDS011;8692;52.164;7.558;2023-04-01T14:06:09;2.70;;;2.50;;
17153;SDS011;8692;52.164;7.558;2023-04-01T14:08:55;2.43;;;2.20;;
17153;SDS011;8692;52.164;7.558;2023-04-01T14:11:45;3.03;;;2.83;;
17153;SDS011;8692;52.164;7.558;2023-04-01T14:14:27;2.70;;;2.50;;
17153;SDS011;8692;52.164;7.558;2023-04-01T14:17:23;3.47;;;2.63;;
17153;SDS011;8692;52.164;7.558;2023-04-01T14:20:16;3.53;;;2.80;;
17153;SDS011;8692;52.164;7.558;2023-04-01T14:23:17;2.90;;;2.70;;
17153;SDS011;8692;52.164;7.558;2023-04-01T14:26:04;2.97;;;2.50;;
17153;SDS011;8692;52.164;7.558;2023-04-01T14:28:42;2.67;;;2.47;;
17153;SDS011;8692;52.164;7.558;2023-04-01T14:34:18;2.50;;;2.30;;
17153;SDS011;8692;52.164;7.558;2023-04-01T14:37:05;2.30;;;2.10;;
17153;SDS011;8692;52.164;7.558;2023-04-01T14:43:07;2.50;;;2.30;;
17153;SDS011;8692;52.164;7.558;2023-04-01T14:46:08;2.50;;;2.30;;
17153;SDS011;8692;52.164;7.558;2023-04-01T14:49:02;3.00;;;2.70;;
17153;SDS011;8692;52.164;7.558;2023-04-01T14:51:46;3.00;;;2.80;;
17153;SDS011;8692;52.164;7.558;2023-04-01T14:54:17;5.63;;;2.60;;
17153;SDS011;8692;52.164;7.558;2023-04-01T14:56:50;2.70;;;2.50;;
17153;SDS011;8692;52.164;7.558;2023-04-01T14:59:29;3.60;;;2.87;;
17153;SDS011;8692;52.164;7.558;2023-04-01T15:01:58;2.73;;;2.53;;
17153;SDS011;8692;52.164;7.558;2023-04-01T15:04:47;3.00;;;2.73;;
17153;SDS011;8692;52.164;7.558;2023-04-01T15:07:33;5.07;;;2.70;;
17153;SDS011;8692;52.164;7.558;2023-04-01T15:10:24;4.03;;;3.20;;
17153;SDS011;8692;52.164;7.558;2023-04-01T15:13:13;3.73;;;3.43;;
17153;SDS011;8692;52.164;7.558;2023-04-01T15:15:57;3.23;;;2.93;;
17153;SDS011;8692;52.164;7.558;2023-04-01T15:18:37;3.40;;;3.10;;
17153;SDS011;8692;52.164;7.558;2023-04-01T15:24:21;2.93;;;2.73;;
17153;SDS011;8692;52.164;7.558;2023-04-01T15:26:54;2.93;;;2.67;;
17153;SDS011;8692;52.164;7.558;2023-04-01T15:29:45;2.70;;;2.33;;
17153;SDS011;8692;52.164;7.558;2023-04-01T15:32:40;2.40;;;1.90;;
17153;SDS011;8692;52.164;7.558;2023-04-01T15:35:19;2.63;;;1.67;;
17153;SDS011;8692;52.164;7.558;2023-04-01T15:37:55;2.37;;;2.10;;
17153;SDS011;8692;52.164;7.558;2023-04-01T15:40:32;2.47;;;1.50;;
17153;SDS011;8692;52.164;7.558;2023-04-01T15:43:15;1.80;;;1.30;;
17153;SDS011;8692;52.164;7.558;2023-04-01T15:45:58;1.83;;;0.80;;
17153;SDS011;8692;52.164;7.558;2023-04-01T15:48:57;1.00;;;1.00;;
17153;SDS011;8692;52.164;7.558;2023-04-01T15:51:53;1.00;;;1.00;;
17153;SDS011;8692;52.164;7.558;2023-04-01T15:54:32;1.97;;;1.30;;
17153;SDS011;8692;52.164;7.558;2023-04-01T15:57:21;2.30;;;1.20;;
17153;SDS011;8692;52.164;7.558;2023-04-01T16:00:02;0.93;;;0.93;;
17153;SDS011;8692;52.164;7.558;2023-04-01T16:02:41;1.20;;;1.10;;
17153;SDS011;8692;52.164;7.558;2023-04-01T16:08:13;1.17;;;1.10;;
17153;SDS011;8692;52.164;7.558;2023-04-01T16:10:59;2.13;;;1.10;;
17153;SDS011;8692;52.164;7.558;2023-04-01T16:13:46;1.10;;;1.00;;
17153;SDS011;8692;52.164;7.558;2023-04-01T16:16:27;3.00;;;1.20;;
17153;SDS011;8692;52.164;7.558;2023-04-01T16:19:08;0.80;;;0.80;;
17153;SDS011;8692;52.164;7.558;2023-04-01T16:21:52;1.70;;;0.90;;
17153;SDS011;8692;52.164;7.558;2023-04-01T16:24:30;1.37;;;1.10;;
17153;SDS011;8692;52.164;7.558;2023-04-01T16:27:07;1.43;;;1.33;;
17153;SDS011;8692;52.164;7.558;2023-04-01T16:29:45;1.00;;;1.00;;
17153;SDS011;8692;52.164;7.558;2023-04-01T16:32:22;1.33;;;1.23;;
17153;SDS011;8692;52.164;7.558;2023-04-01T16:35:04;1.30;;;1.20;;
17153;SDS011;8692;52.164;7.558;2023-04-01T16:37:49;2.50;;;1.00;;
17153;SDS011;8692;52.164;7.558;2023-04-01T16:40:25;1.40;;;0.80;;
17153;SDS011;8692;52.164;7.558;2023-04-01T16:43:06;1.10;;;1.00;;
17153;SDS011;8692;52.164;7.558;2023-04-01T16:45:43;0.70;;;0.70;;
17153;SDS011;8692;52.164;7.558;2023-04-01T16:48:24;0.60;;;0.60;;
17153;SDS011;8692;52.164;7.558;2023-04-01T16:50:58;0.77;;;0.77;;
17153;SDS011;8692;52.164;7.558;2023-04-01T16:53:34;0.70;;;0.70;;
17153;SDS011;8692;52.164;7.558;2023-04-01T16:56:11;1.97;;;0.80;;
17153;SDS011;8692;52.164;7.558;2023-04-01T16:58:43;0.53;;;0.53;;
17153;SDS011;8692;52.164;7.558;2023-04-01T17:01:36;0.60;;;0.60;;
17153;SDS011;8692;52.164;7.558;2023-04-01T17:04:15;0.37;;;0.37;;
17153;SDS011;8692;52.164;7.558;2023-04-01T17:06:49;0.50;;;0.50;;
17153;SDS011;8692;52.164;7.558;2023-04-01T17:09:27;0.57;;;0.57;;
17153;SDS011;8692;52.164;7.558;2023-04-01T17:12:09;0.50;;;0.50;;
17153;SDS011;8692;52.164;7.558;2023-04-01T17:14:46;0.40;;;0.40;;
17153;SDS011;8692;52.164;7.558;2023-04-01T17:17:28;0.40;;;0.40;;
17153;SDS011;8692;52.164;7.558;2023-04-01T17:23:05;0.40;;;0.40;;
17153;SDS011;8692;52.164;7.558;2023-04-01T17:25:50;0.53;;;0.53;;
17153;SDS011;8692;52.164;7.558;2023-04-01T17:28:31;0.50;;;0.50;;
17153;SDS011;8692;52.164;7.558;2023-04-01T17:31:12;0.57;;;0.57;;
17153;SDS011;8692;52.164;7.558;2023-04-01T17:37:02;0.67;;;0.67;;
17153;SDS011;8692;52.164;7.558;2023-04-01T17:39:46;0.60;;;0.60;;
17153;SDS011;8692;52.164;7.558;2023-04-01T17:42:22;0.40;;;0.40;;
17153;SDS011;8692;52.164;7.558;2023-04-01T17:45:03;0.60;;;0.60;;
17153;SDS011;8692;52.164;7.558;2023-04-01T17:47:40;0.60;;;0.60;;
17153;SDS011;8692;52.164;7.558;2023-04-01T17:50:20;0.60;;;0.60;;
17153;SDS011;8692;52.164;7.558;2023-04-01T17:53:06;0.90;;;0.63;;
17153;SDS011;8692;52.164;7.558;2023-04-01T17:55:51;1.00;;;0.60;;
17153;SDS011;8692;52.164;7.558;2023-04-01T17:58:34;0.43;;;0.43;;